Time;durP1;ratioP1;P1;durP2;ratioP2;P2;SDS_P1;SDS_P2;PMS_P1;PMS_P2;Temp;Humidity;BMP_temperature;BMP_pressure;BME280_temperature;BME280_humidity;BME280_pressure;Samples;Min_cycle;Max_cycle;Signal;HPM_P1;HPM_P2
2022/01/03 00:01:26;;;;;;;12.75;5.70;;;-5.60;90.80;;;;;;4994206;28;20039;-81
2022/01/03 00:03:52;;;;;;;6.75;5.28;;;-5.60;91.00;;;;;;4995730;28;20026;-80
2022/01/03 00:06:20;;;;;;;5.85;4.47;;;-5.60;91.00;;;;;;4995577;28;20077;-79
2022/01/03 00:08:47;;;;;;;7.85;5.88;;;-5.60;91.10;;;;;;4996193;28;20030;-79
2022/01/03 00:11:25;;;;;;;9.05;4.70;;;-5.50;91.10;;;;;;4996484;28;20030;-78
2022/01/03 00:13:51;;;;;;;5.45;4.13;;;-5.50;91.00;;;;;;4995492;28;20105;-80
2022/01/03 00:16:18;;;;;;;5.47;3.40;;;-5.50;91.10;;;;;;4995563;28;20106;-80
2022/01/03 00:18:43;;;;;;;8.32;4.47;;;-5.50;91.00;;;;;;4995301;28;20253;-80
2022/01/03 00:21:15;;;;;;;6.68;4.15;;;-5.60;91.00;;;;;;4995096;28;20031;-79
2022/01/03 00:23:50;;;;;;;7.72;3.40;;;-5.60;91.10;;;;;;5009893;28;20026;-80
2022/01/03 00:26:23;;;;;;;4.75;4.13;;;-5.50;91.10;;;;;;4994883;28;20433;-78
2022/01/03 00:28:58;;;;;;;8.60;3.88;;;-5.50;91.10;;;;;;4995136;28;20053;-78
2022/01/03 00:31:45;;;;;;;8.20;4.95;;;-5.50;91.00;;;;;;4993725;28;20030;-80
2022/01/03 00:34:14;;;;;;;12.23;4.32;;;-5.40;91.00;;;;;;4995459;28;20029;-79
2022/01/03 00:36:42;;;;;;;8.25;4.38;;;-5.40;91.00;;;;;;4995398;28;20435;-79
2022/01/03 00:39:09;;;;;;;8.07;4.85;;;-5.40;91.00;;;;;;4995389;28;20035;-79
2022/01/03 00:41:40;;;;;;;7.63;3.95;;;-5.40;90.90;;;;;;4996551;28;20034;-79
2022/01/03 00:44:07;;;;;;;6.07;3.30;;;-5.40;90.90;;;;;;5010952;28;20026;-79
2022/01/03 00:46:33;;;;;;;3.87;2.70;;;-5.40;90.80;;;;;;4999261;28;20055;-80
2022/01/03 00:49:03;;;;;;;7.03;4.35;;;-5.40;90.90;;;;;;4995071;28;20302;-79
2022/01/03 00:51:30;;;;;;;6.50;3.60;;;-5.50;91.00;;;;;;4994719;28;20031;-80
2022/01/03 00:53:56;;;;;;;5.38;3.70;;;-5.50;91.00;;;;;;4993552;28;20054;-79
2022/01/03 00:56:29;;;;;;;7.75;4.15;;;-5.60;91.00;;;;;;4993258;28;20061;-78
2022/01/03 00:59:05;;;;;;;8.88;4.97;;;-5.60;91.00;;;;;;4994711;28;20027;-80
2022/01/03 01:01:34;;;;;;;7.65;4.47;;;-5.60;91.20;;;;;;4994731;28;20034;-80
2022/01/03 01:04:02;;;;;;;6.18;3.92;;;-5.60;91.30;;;;;;4994746;28;20018;-80
2022/01/03 01:06:33;;;;;;;8.27;3.33;;;-5.70;91.20;;;;;;4994540;28;20030;-81
2022/01/03 01:09:02;;;;;;;4.43;3.38;;;-5.60;91.40;;;;;;4993365;28;20436;-79
2022/01/03 01:11:30;;;;;;;5.13;3.53;;;-5.70;91.30;;;;;;4994761;28;20026;-79
2022/01/03 01:13:57;;;;;;;5.78;3.47;;;-5.60;91.40;;;;;;4994559;28;20357;-81
2022/01/03 01:16:24;;;;;;;9.45;3.38;;;-5.60;91.30;;;;;;4994777;28;20026;-82
2022/01/03 01:18:50;;;;;;;5.47;4.03;;;-5.60;91.20;;;;;;4994811;28;20046;-79
2022/01/03 01:21:17;;;;;;;4.38;2.90;;;-5.50;91.20;;;;;;4994277;28;20066;-82
2022/01/03 01:23:43;;;;;;;5.22;2.90;;;-5.50;91.10;;;;;;4994421;28;20025;-79
2022/01/03 01:28:55;;;;;;;8.95;3.20;;;-5.50;90.90;;;;;;4994518;28;20146;-81
2022/01/03 01:31:23;;;;;;;6.03;3.57;;;-5.60;91.00;;;;;;4994106;28;20102;-78
2022/01/03 01:33:55;;;;;;;7.45;3.92;;;-5.70;91.00;;;;;;4994160;28;20073;-80
2022/01/03 01:36:27;;;;;;;5.95;3.85;;;-5.80;91.00;;;;;;5009228;28;20369;-79
2022/01/03 01:38:59;;;;;;;6.72;4.30;;;-5.70;91.20;;;;;;4994458;28;20046;-81
2022/01/03 01:41:27;;;;;;;6.03;4.00;;;-5.70;91.30;;;;;;4994408;28;20069;-79
2022/01/03 01:43:57;;;;;;;4.22;3.08;;;-5.60;91.30;;;;;;5000798;28;20023;-80
2022/01/03 01:46:24;;;;;;;6.47;3.70;;;-5.60;91.20;;;;;;4994980;28;20026;-80
2022/01/03 01:48:51;;;;;;;;;;;-5.70;91.20;;;;;;4996691;28;20019;-78
2022/01/03 01:51:19;;;;;;;4.30;3.00;;;-5.70;91.30;;;;;;5001130;28;19906;-79
2022/01/03 01:53:51;;;;;;;6.55;3.90;;;-5.70;91.40;;;;;;5004857;28;20272;-78
2022/01/03 01:56:26;;;;;;;5.25;4.45;;;-5.70;91.40;;;;;;4978535;28;20065;-79
2022/01/03 01:59:01;;;;;;;5.80;3.70;;;-5.70;91.50;;;;;;4980950;28;20038;-79
2022/01/03 02:01:52;;;;;;;6.57;3.88;;;-5.70;91.40;;;;;;4994906;28;20060;-80
2022/01/03 02:04:40;;;;;;;9.07;3.85;;;-5.70;91.40;;;;;;5009431;28;20443;-79
2022/01/03 02:07:27;;;;;;;6.03;3.95;;;-5.80;91.30;;;;;;4993275;28;20417;-79
2022/01/03 02:10:15;;;;;;;6.25;4.10;;;-6.10;91.40;;;;;;4994098;28;20462;-81
2022/01/03 02:12:43;;;;;;;7.05;3.35;;;-6.20;91.60;;;;;;4994598;28;20045;-77
2022/01/03 02:15:13;;;;;;;8.55;3.50;;;-6.30;91.80;;;;;;4993528;28;20105;-80
2022/01/03 02:17:40;;;;;;;6.13;3.28;;;-6.30;92.00;;;;;;4993324;28;20053;-80
2022/01/03 02:20:20;;;;;;;5.20;3.78;;;-6.40;92.10;;;;;;4993031;28;20093;-81
2022/01/03 02:22:46;;;;;;;8.00;4.63;;;-6.40;92.30;;;;;;4993134;28;20101;-79
2022/01/03 02:25:14;;;;;;;8.80;4.95;;;-6.40;92.40;;;;;;4993323;28;20027;-80
2022/01/03 02:27:40;;;;;;;6.22;3.78;;;-6.30;92.60;;;;;;4993249;28;20383;-80
2022/01/03 02:30:10;;;;;;;7.18;4.20;;;-6.20;92.40;;;;;;4993199;28;20122;-80
2022/01/03 02:32:36;;;;;;;10.18;4.72;;;-6.10;92.40;;;;;;4993218;28;20476;-79
2022/01/03 02:35:03;;;;;;;7.47;4.20;;;-6.00;92.30;;;;;;4993598;28;20089;-79
2022/01/03 02:37:29;;;;;;;8.50;5.10;;;-5.90;92.20;;;;;;4993510;28;20026;-80
2022/01/03 02:39:56;;;;;;;7.35;3.90;;;-5.80;92.20;;;;;;4995495;28;20050;-80
2022/01/03 02:42:25;;;;;;;6.68;3.85;;;-5.80;92.20;;;;;;5008885;28;20101;-79
2022/01/03 02:45:06;;;;;;;7.93;3.90;;;-5.80;92.10;;;;;;4997649;28;20057;-79
2022/01/03 02:47:32;;;;;;;10.00;3.90;;;-5.80;92.10;;;;;;4996591;28;20033;-79
2022/01/03 02:49:58;;;;;;;12.90;6.32;;;-5.80;92.10;;;;;;4996963;28;20396;-80
2022/01/03 02:52:24;;;;;;;7.22;4.53;;;-5.90;92.20;;;;;;4997204;28;20546;-80
2022/01/03 02:54:51;;;;;;;9.13;4.63;;;-5.90;92.10;;;;;;4997154;28;20022;-78
2022/01/03 02:57:23;;;;;;;6.43;4.32;;;-5.90;92.30;;;;;;4996873;28;20391;-79
2022/01/03 02:59:57;;;;;;;7.30;4.20;;;-5.90;92.30;;;;;;4996697;28;20049;-79
2022/01/03 03:02:24;;;;;;;7.32;4.32;;;-6.00;92.10;;;;;;4996783;28;20077;-78
2022/01/03 03:04:55;;;;;;;5.97;4.32;;;-6.10;92.20;;;;;;4996695;28;20105;-80
2022/01/03 03:07:23;;;;;;;8.98;4.78;;;-6.10;92.50;;;;;;4996694;28;20022;-79
2022/01/03 03:09:49;;;;;;;10.88;4.93;;;-6.10;92.60;;;;;;4996628;28;20025;-79
2022/01/03 03:12:15;;;;;;;10.90;5.18;;;-6.00;92.60;;;;;;4996638;28;20082;-78
2022/01/03 03:14:41;;;;;;;8.23;4.03;;;-5.90;92.60;;;;;;4995503;28;20558;-78
2022/01/03 03:17:07;;;;;;;9.13;4.45;;;-6.00;92.40;;;;;;4995624;28;20026;-78
2022/01/03 03:19:32;;;;;;;5.53;3.42;;;-6.10;92.30;;;;;;4996657;28;20058;-79
2022/01/03 03:21:58;;;;;;;4.68;3.17;;;-6.20;92.40;;;;;;4995029;28;20042;-79
2022/01/03 03:24:24;;;;;;;10.20;4.15;;;-6.20;92.70;;;;;;4996428;28;20150;-79
2022/01/03 03:26:50;;;;;;;6.25;3.97;;;-6.30;92.70;;;;;;4996456;28;20054;-79
2022/01/03 03:29:15;;;;;;;7.05;4.38;;;-6.30;92.90;;;;;;4996337;28;20033;-79
2022/01/03 03:31:42;;;;;;;8.07;4.38;;;-6.30;92.90;;;;;;4994838;28;20040;-79
2022/01/03 03:34:08;;;;;;;7.53;4.47;;;-6.40;92.90;;;;;;4994904;28;20507;-79
2022/01/03 03:36:34;;;;;;;11.15;4.63;;;-6.40;93.10;;;;;;4996253;28;20030;-79
2022/01/03 03:39:00;;;;;;;6.88;4.53;;;-6.50;93.20;;;;;;4995954;28;20130;-80
2022/01/03 03:41:26;;;;;;;8.27;5.05;;;-6.40;93.50;;;;;;4995864;28;20030;-79
2022/01/03 03:43:52;;;;;;;5.30;3.75;;;-6.30;93.40;;;;;;4996209;28;20022;-79
2022/01/03 03:46:18;;;;;;;6.78;4.85;;;-6.40;93.30;;;;;;4995969;28;20036;-78
2022/01/03 03:48:44;;;;;;;6.25;3.25;;;-6.40;93.40;;;;;;4996149;28;20048;-79
2022/01/03 03:51:09;;;;;;;5.43;3.20;;;-6.40;93.40;;;;;;4996372;28;20030;-78
2022/01/03 03:53:35;;;;;;;5.28;3.28;;;-6.40;93.30;;;;;;4995411;28;20037;-78
2022/01/03 03:56:01;;;;;;;6.75;3.53;;;-6.50;93.30;;;;;;4997732;28;20038;-79
2022/01/03 03:58:27;;;;;;;11.35;5.03;;;-6.70;93.40;;;;;;4996386;28;20030;-80
2022/01/03 04:00:53;;;;;;;5.47;3.28;;;-6.70;93.60;;;;;;5003463;28;20038;-80
2022/01/03 04:03:18;;;;;;;7.60;4.10;;;-6.70;93.80;;;;;;5003772;28;20018;-80
2022/01/03 04:05:44;;;;;;;6.03;3.65;;;-6.70;93.90;;;;;;4997723;28;20521;-79
2022/01/03 04:08:10;;;;;;;9.52;5.13;;;-6.70;94.00;;;;;;4996123;28;20069;-79
2022/01/03 04:10:36;;;;;;;7.93;5.22;;;-6.70;94.20;;;;;;4995806;28;20081;-80
2022/01/03 04:13:02;;;;;;;11.00;5.60;;;-6.60;94.20;;;;;;4996317;28;20138;-78
2022/01/03 04:15:27;;;;;;;5.68;4.25;;;-6.60;94.30;;;;;;4996290;28;20101;-79
2022/01/03 04:17:53;;;;;;;6.35;4.07;;;-6.40;94.40;;;;;;4995320;28;20439;-78
2022/01/03 04:20:19;;;;;;;10.50;5.28;;;-6.40;94.30;;;;;;4995219;28;20034;-78
2022/01/03 04:22:45;;;;;;;7.20;4.30;;;-6.30;94.30;;;;;;4995227;28;20101;-78
2022/01/03 04:25:11;;;;;;;6.50;4.20;;;-6.30;94.10;;;;;;4995092;28;20026;-78
2022/01/03 04:27:37;;;;;;;7.22;3.92;;;-6.30;94.10;;;;;;4995229;28;20031;-79
2022/01/03 04:30:05;;;;;;;6.32;4.50;;;-6.30;94.00;;;;;;4995027;28;20054;-79
2022/01/03 04:32:30;;;;;;;;;;;-6.30;94.10;;;;;;4996304;28;20025;-79
2022/01/03 04:34:56;;;;;;;6.18;2.88;;;-6.20;94.10;;;;;;5002220;28;19906;-78
2022/01/03 04:37:22;;;;;;;7.20;4.85;;;-6.30;93.90;;;;;;5002821;28;20038;-79
2022/01/03 04:39:47;;;;;;;6.88;4.53;;;-6.40;94.00;;;;;;5004054;28;20058;-79
2022/01/03 04:42:13;;;;;;;9.80;5.75;;;-6.30;94.10;;;;;;5008517;28;20042;-78
2022/01/03 04:44:39;;;;;;;8.07;5.22;;;-6.40;94.10;;;;;;4995198;28;20476;-78
2022/01/03 04:47:05;;;;;;;13.13;6.47;;;-6.40;94.10;;;;;;4993525;28;20037;-80
2022/01/03 04:49:34;;;;;;;9.45;6.18;;;-6.40;94.20;;;;;;5010077;28;20090;-79
2022/01/03 04:52:00;;;;;;;9.43;5.13;;;-6.40;94.10;;;;;;4995536;28;20030;-79
2022/01/03 04:54:26;;;;;;;8.23;6.07;;;-6.40;94.20;;;;;;4995029;28;20034;-78
2022/01/03 04:56:57;;;;;;;9.15;5.82;;;-6.40;94.30;;;;;;5009838;28;20030;-79
2022/01/03 04:59:23;;;;;;;9.35;6.22;;;-6.40;94.40;;;;;;5009677;28;20403;-78
2022/01/03 05:01:48;;;;;;;9.07;6.47;;;-6.30;94.30;;;;;;4994301;28;20030;-78
2022/01/03 05:04:14;;;;;;;10.63;6.22;;;-6.30;94.30;;;;;;4994615;28;20108;-78
2022/01/03 05:06:40;;;;;;;14.57;7.25;;;-6.30;94.50;;;;;;4994369;28;20033;-78
2022/01/03 05:09:06;;;;;;;10.27;5.90;;;-6.30;94.30;;;;;;4993479;28;20018;-80
2022/01/03 05:11:32;;;;;;;11.70;6.15;;;-6.40;94.30;;;;;;4992446;28;20669;-81
2022/01/03 05:13:57;;;;;;;7.75;5.43;;;-6.30;94.50;;;;;;4994170;28;20030;-79
2022/01/03 05:16:23;;;;;;;9.55;6.47;;;-6.20;94.40;;;;;;4994055;28;20023;-79
2022/01/03 05:18:49;;;;;;;10.43;6.22;;;-6.20;94.30;;;;;;4994077;28;20033;-80
2022/01/03 05:21:15;;;;;;;11.30;6.03;;;-6.20;94.40;;;;;;4993884;28;20045;-80
2022/01/03 05:23:41;;;;;;;11.95;5.53;;;-6.20;94.30;;;;;;4994147;28;20030;-80
2022/01/03 05:26:07;;;;;;;10.43;5.82;;;-6.30;94.20;;;;;;4993894;28;20022;-79
2022/01/03 05:28:33;;;;;;;13.23;7.63;;;-6.30;94.30;;;;;;4994138;28;20029;-79
2022/01/03 05:30:58;;;;;;;7.50;5.22;;;-6.40;94.30;;;;;;4994073;28;20479;-80
2022/01/03 05:33:24;;;;;;;10.45;6.50;;;-6.40;94.40;;;;;;4994058;28;20061;-79
2022/01/03 05:35:50;;;;;;;13.85;8.27;;;-6.40;94.40;;;;;;4993964;28;20027;-80
2022/01/03 05:38:16;;;;;;;10.40;7.35;;;-6.30;94.60;;;;;;4994205;28;20357;-79
2022/01/03 05:40:42;;;;;;;5.38;3.78;;;-6.30;94.50;;;;;;4993493;28;20085;-79
2022/01/03 05:43:09;;;;;;;13.35;6.40;;;-6.30;94.40;;;;;;4993722;28;20026;-80
2022/01/03 05:45:35;;;;;;;;;;;-6.30;94.40;;;;;;4992970;28;20042;-79
2022/01/03 05:48:01;;;;;;;15.32;9.10;;;-6.30;94.50;;;;;;4994278;28;19906;-80
2022/01/03 05:50:27;;;;;;;9.70;5.97;;;-6.20;94.50;;;;;;4993519;28;20097;-81
2022/01/03 05:52:53;;;;;;;8.88;5.75;;;-6.20;94.40;;;;;;4994064;28;20072;-80
2022/01/03 05:55:20;;;;;;;14.07;6.65;;;-6.30;94.20;;;;;;4993570;28;20030;-79
2022/01/03 05:57:46;;;;;;;6.15;4.25;;;-6.30;94.30;;;;;;4994369;28;20022;-79
2022/01/03 06:00:16;;;;;;;9.13;5.63;;;-6.40;94.30;;;;;;4994319;28;20030;-79
2022/01/03 06:02:43;;;;;;;8.95;6.80;;;-6.50;94.50;;;;;;4993498;28;20100;-79
2022/01/03 06:05:18;;;;;;;10.70;6.22;;;-6.40;94.70;;;;;;4993863;28;20015;-81
2022/01/03 06:07:44;;;;;;;9.82;6.45;;;-6.40;94.80;;;;;;4994675;28;20413;-80
2022/01/03 06:10:15;;;;;;;10.65;6.15;;;-6.30;94.90;;;;;;5004970;28;20140;-80
2022/01/03 06:12:42;;;;;;;9.52;6.50;;;-6.30;94.90;;;;;;5003288;28;20023;-80
2022/01/03 06:15:08;;;;;;;11.68;7.72;;;-6.20;94.90;;;;;;4994039;28;20030;-81
2022/01/03 06:17:34;;;;;;;10.70;6.75;;;-6.10;94.90;;;;;;4994701;28;20036;-79
2022/01/03 06:19:59;;;;;;;11.90;6.63;;;-6.10;94.80;;;;;;4993938;28;20375;-79
2022/01/03 06:22:25;;;;;;;11.50;7.28;;;-6.10;94.70;;;;;;4992724;28;20037;-79
2022/01/03 06:24:51;;;;;;;10.60;7.15;;;-6.00;94.60;;;;;;4993024;28;20402;-80
2022/01/03 06:27:17;;;;;;;8.50;5.90;;;-6.00;94.50;;;;;;4993145;28;20035;-80
2022/01/03 06:29:43;;;;;;;12.82;6.63;;;-6.00;94.60;;;;;;4993124;28;20030;-78
2022/01/03 06:32:09;;;;;;;11.50;6.63;;;-6.00;94.50;;;;;;5008636;28;20499;-81
2022/01/03 06:34:34;;;;;;;16.23;7.13;;;-5.90;94.60;;;;;;4994431;28;20029;-80
2022/01/03 06:37:00;;;;;;;12.05;6.95;;;-5.90;94.50;;;;;;5000663;28;20435;-80
2022/01/03 06:39:26;;;;;;;10.70;6.47;;;-5.90;94.40;;;;;;5010174;28;20503;-80
2022/01/03 06:41:53;;;;;;;11.48;5.97;;;-5.90;94.40;;;;;;5000375;28;20056;-79
2022/01/03 06:44:19;;;;;;;12.57;6.95;;;-5.80;94.40;;;;;;4992823;28;20102;-79
2022/01/03 06:46:47;;;;;;;13.18;7.43;;;-5.80;94.30;;;;;;4992710;28;20026;-78
2022/01/03 06:49:13;;;;;;;11.80;7.43;;;-5.70;94.20;;;;;;4991725;28;20022;-80
2022/01/03 06:51:39;;;;;;;10.02;7.45;;;-5.70;94.00;;;;;;4992880;28;20126;-80
2022/01/03 06:54:09;;;;;;;13.18;8.35;;;-5.70;94.00;;;;;;4992819;28;20030;-80
2022/01/03 06:56:34;;;;;;;12.65;6.90;;;-5.70;93.90;;;;;;4992541;28;20034;-80
2022/01/03 06:59:00;;;;;;;13.07;6.80;;;-5.60;93.90;;;;;;4993027;28;20147;-81
2022/01/03 07:01:26;;;;;;;14.35;7.45;;;-5.60;93.70;;;;;;4991010;28;20038;-79
2022/01/03 07:03:52;;;;;;;13.75;8.25;;;-5.70;93.60;;;;;;4992816;28;20041;-79
2022/01/03 07:06:18;;;;;;;13.15;8.05;;;-5.70;93.70;;;;;;4992871;28;20061;-79
2022/01/03 07:08:44;;;;;;;11.90;7.20;;;-5.70;93.80;;;;;;4991614;28;20026;-79
2022/01/03 07:11:09;;;;;;;14.77;7.00;;;-5.60;93.60;;;;;;4992928;28;20034;-80
2022/01/03 07:13:44;;;;;;;13.95;7.00;;;-5.60;93.60;;;;;;4992838;28;20093;-80
2022/01/03 07:18:57;;;;;;;12.18;5.95;;;-5.60;93.70;;;;;;4992527;28;20080;-80
2022/01/03 07:21:30;;;;;;;9.20;5.47;;;-5.70;93.30;;;;;;4991206;28;20038;-79
2022/01/03 07:23:57;;;;;;;12.40;6.25;;;-5.70;93.40;;;;;;4992806;28;20019;-80
2022/01/03 07:26:24;;;;;;;10.57;5.90;;;-5.70;93.40;;;;;;4995043;28;20030;-80
2022/01/03 07:28:50;;;;;;;13.57;7.80;;;-5.70;93.50;;;;;;4995964;28;20058;-77
2022/01/03 07:31:16;;;;;;;9.93;6.82;;;-5.70;93.40;;;;;;4992144;28;20030;-79
2022/01/03 07:33:43;;;;;;;11.25;6.90;;;-5.70;93.20;;;;;;4996095;28;20060;-81
2022/01/03 07:36:09;;;;;;;15.80;7.35;;;-5.70;93.40;;;;;;4996610;28;20026;-81
2022/01/03 07:38:36;;;;;;;12.45;7.85;;;-5.60;93.60;;;;;;4996013;28;20427;-79
2022/01/03 07:41:03;;;;;;;16.03;8.33;;;-5.50;93.60;;;;;;5011174;28;20506;-80
2022/01/03 07:43:29;;;;;;;15.07;7.00;;;-5.40;93.60;;;;;;4996190;28;20053;-81
2022/01/03 07:45:55;;;;;;;15.90;7.72;;;-5.30;93.30;;;;;;4998304;28;20034;-80
2022/01/03 07:48:21;;;;;;;12.52;6.85;;;-5.50;92.90;;;;;;4995505;28;20081;-81
2022/01/03 07:50:47;;;;;;;9.95;7.13;;;-5.50;93.10;;;;;;4996054;28;20026;-80
2022/01/03 07:53:13;;;;;;;10.93;7.78;;;-5.60;93.10;;;;;;4994795;28;20018;-79
2022/01/03 07:55:39;;;;;;;17.08;7.82;;;-5.50;93.30;;;;;;4996544;28;20026;-82
2022/01/03 07:58:04;;;;;;;13.30;7.03;;;-5.50;93.20;;;;;;4996245;28;20031;-82
2022/01/03 08:00:30;;;;;;;11.18;7.50;;;-5.40;93.20;;;;;;4995949;28;20052;-80
2022/01/03 08:02:56;;;;;;;14.00;8.63;;;-5.40;93.20;;;;;;5011351;28;20030;-80
2022/01/03 08:05:22;;;;;;;12.45;6.55;;;-5.30;93.20;;;;;;4995982;28;20057;-80
2022/01/03 08:07:48;;;;;;;12.45;5.90;;;-5.20;93.00;;;;;;4995508;28;20030;-81
2022/01/03 08:10:14;;;;;;;17.40;7.95;;;-5.10;92.90;;;;;;4994516;28;20197;-80
2022/01/03 08:12:41;;;;;;;11.83;7.50;;;-5.20;92.70;;;;;;4995773;28;20105;-79
2022/01/03 08:15:08;;;;;;;11.07;7.00;;;-5.20;92.70;;;;;;5010860;28;20026;-80
2022/01/03 08:17:34;;;;;;;10.60;7.45;;;-5.20;92.70;;;;;;5000787;28;20057;-80
2022/01/03 08:20:02;;;;;;;11.93;7.95;;;-5.30;92.70;;;;;;5004799;28;20081;-80
2022/01/03 08:22:27;;;;;;;14.95;9.02;;;-5.30;92.80;;;;;;5002546;28;20491;-81
2022/01/03 08:24:56;;;;;;;15.80;7.93;;;-5.20;92.80;;;;;;5000043;28;20057;-81
2022/01/03 08:27:22;;;;;;;14.23;8.27;;;-5.20;92.60;;;;;;5002793;28;20022;-81
2022/01/03 08:29:48;;;;;;;18.60;10.00;;;-5.20;92.60;;;;;;4996225;28;20034;-79
2022/01/03 08:32:14;;;;;;;10.05;6.38;;;-5.30;92.50;;;;;;4995379;28;20030;-80
2022/01/03 08:34:40;;;;;;;16.65;9.80;;;-5.30;92.60;;;;;;4997171;28;20045;-79
2022/01/03 08:37:06;;;;;;;15.18;8.88;;;-5.30;92.60;;;;;;5000609;28;20026;-81
2022/01/03 08:39:32;;;;;;;15.52;8.52;;;-5.20;92.80;;;;;;5011320;28;20053;-80
2022/01/03 08:42:04;;;;;;;12.40;7.80;;;-5.00;92.60;;;;;;5005735;28;20034;-82
2022/01/03 08:44:30;;;;;;;16.70;8.38;;;-5.00;92.40;;;;;;4993510;28;20029;-80
2022/01/03 08:46:56;;;;;;;13.02;8.77;;;-5.00;92.20;;;;;;4994950;28;20027;-80
2022/01/03 08:49:21;;;;;;;13.85;9.13;;;-5.10;92.10;;;;;;4993357;28;20046;-80
2022/01/03 08:51:47;;;;;;;10.45;8.10;;;-5.10;92.30;;;;;;4994381;28;20494;-80
2022/01/03 08:54:13;;;;;;;13.30;8.32;;;-5.00;92.30;;;;;;4994761;28;20427;-82
2022/01/03 08:56:42;;;;;;;15.40;8.90;;;-5.10;92.10;;;;;;4994832;28;20061;-80
2022/01/03 08:59:08;;;;;;;15.30;7.13;;;-5.10;92.20;;;;;;4994526;28;20031;-81
2022/01/03 09:01:34;;;;;;;15.93;8.43;;;-5.10;92.10;;;;;;4994417;28;20507;-80
2022/01/03 09:03:59;;;;;;;15.77;8.60;;;-5.10;92.00;;;;;;5009337;28;20019;-82
2022/01/03 09:06:25;;;;;;;15.00;7.50;;;-5.10;92.20;;;;;;4994518;28;20022;-82
2022/01/03 09:08:51;;;;;;;14.32;8.10;;;-5.00;92.20;;;;;;4995646;28;20101;-81
2022/01/03 09:11:17;;;;;;;19.95;8.80;;;-5.10;92.10;;;;;;4996603;28;20022;-80
2022/01/03 09:13:43;;;;;;;17.63;9.70;;;-5.00;92.10;;;;;;4995379;28;20111;-81
2022/01/03 09:16:09;;;;;;;14.65;7.82;;;-4.90;92.10;;;;;;4994486;28;20102;-81
2022/01/03 09:18:37;;;;;;;14.35;8.13;;;-4.80;92.10;;;;;;4994409;28;20030;-80
2022/01/03 09:21:06;;;;;;;11.20;7.63;;;-4.70;91.90;;;;;;4993679;28;20078;-79
2022/01/03 09:23:36;;;;;;;11.25;7.25;;;-4.60;91.90;;;;;;4993976;28;20072;-78
2022/01/03 09:28:52;;;;;;;14.32;8.10;;;-4.60;91.40;;;;;;4994195;28;20368;-80
2022/01/03 09:31:24;;;;;;;16.58;10.93;;;-4.60;91.50;;;;;;5008925;28;20121;-81
2022/01/03 09:33:52;;;;;;;13.82;9.25;;;-4.50;91.10;;;;;;4993895;28;20026;-82
2022/01/03 09:36:18;;;;;;;21.63;13.32;;;-4.50;91.10;;;;;;4993827;28;20100;-79
2022/01/03 09:38:43;;;;;;;21.13;12.70;;;-4.50;90.70;;;;;;4993601;28;20057;-80
2022/01/03 09:41:11;;;;;;;19.85;12.07;;;-4.60;90.60;;;;;;4993992;28;20038;-82
2022/01/03 09:43:41;;;;;;;25.20;11.77;;;-4.60;90.70;;;;;;4995196;28;20479;-79
2022/01/03 09:46:11;;;;;;;19.60;13.65;;;-4.70;90.40;;;;;;4993976;28;20452;-80
2022/01/03 09:48:41;;;;;;;23.73;14.15;;;-4.70;90.60;;;;;;4993730;28;20490;-80
2022/01/03 09:51:07;;;;;;;20.25;13.52;;;-4.70;90.90;;;;;;4993573;28;20419;-80
2022/01/03 09:53:34;;;;;;;28.33;15.82;;;-4.60;91.00;;;;;;4993682;28;20026;-82
2022/01/03 09:56:00;;;;;;;22.20;11.52;;;-4.50;91.00;;;;;;4993066;28;20026;-79
2022/01/03 09:58:26;;;;;;;25.35;12.93;;;-4.40;91.00;;;;;;5008769;28;20060;-81
2022/01/03 10:00:53;;;;;;;20.67;13.20;;;-4.40;90.90;;;;;;4994070;28;20038;-82
2022/01/03 10:03:20;;;;;;;17.85;11.40;;;-4.30;90.80;;;;;;4994886;28;20022;-80
2022/01/03 10:05:46;;;;;;;17.40;10.93;;;-4.30;91.00;;;;;;4992126;28;20030;-81
2022/01/03 10:08:11;;;;;;;16.67;10.25;;;-4.30;90.70;;;;;;4993669;28;20162;-80
2022/01/03 10:10:37;;;;;;;16.98;9.43;;;-4.20;90.60;;;;;;4994094;28;20030;-79
2022/01/03 10:13:03;;;;;;;17.63;10.50;;;-4.20;90.50;;;;;;5008902;28;20027;-79
2022/01/03 10:15:29;;;;;;;18.48;10.73;;;-4.20;90.50;;;;;;4993718;28;20105;-80
2022/01/03 10:17:55;;;;;;;24.08;11.43;;;-4.10;90.40;;;;;;4997283;28;20023;-78
2022/01/03 10:20:21;;;;;;;20.92;11.43;;;-4.10;90.40;;;;;;5011278;28;20038;-81
2022/01/03 10:22:47;;;;;;;17.10;10.05;;;-4.00;90.30;;;;;;4993681;28;20089;-81
2022/01/03 10:25:16;;;;;;;16.17;10.25;;;-4.00;90.20;;;;;;5009256;28;20022;-81
2022/01/03 10:27:47;;;;;;;17.52;9.75;;;-4.00;90.10;;;;;;4998457;28;20026;-78
2022/01/03 10:30:27;;;;;;;16.73;9.45;;;-4.00;90.00;;;;;;4995262;28;20041;-81
2022/01/03 10:32:53;;;;;;;14.50;9.00;;;-4.00;90.10;;;;;;5010255;28;20068;-79
2022/01/03 10:35:19;;;;;;;15.30;10.60;;;-4.00;90.10;;;;;;5011461;28;20468;-80
2022/01/03 10:37:45;;;;;;;18.48;9.52;;;-3.90;90.00;;;;;;5001762;28;20022;-81
2022/01/03 10:40:29;;;;;;;15.57;10.15;;;-4.00;89.90;;;;;;4998418;28;20057;-80
2022/01/03 10:43:19;;;;;;;19.92;10.80;;;-4.00;89.90;;;;;;4993309;28;20546;-80
2022/01/03 10:45:46;;;;;;;19.52;10.88;;;-4.00;89.90;;;;;;4992971;28;20022;-81
2022/01/03 10:48:31;;;;;;;13.00;9.10;;;-4.00;89.90;;;;;;4992787;28;20022;-80
2022/01/03 10:50:58;;;;;;;19.27;10.00;;;-4.00;89.70;;;;;;4993029;28;20038;-81
2022/01/03 10:53:32;;;;;;;20.90;11.87;;;-4.00;89.70;;;;;;4993079;28;20042;-81
2022/01/03 10:55:58;;;;;;;17.60;9.82;;;-4.00;89.50;;;;;;5008578;28;20031;-79
2022/01/03 10:58:33;;;;;;;13.52;9.52;;;-4.00;89.90;;;;;;4992243;28;20022;-79
2022/01/03 11:01:02;;;;;;;18.35;10.75;;;-4.00;89.20;;;;;;4993028;28;20056;-81
2022/01/03 11:03:36;;;;;;;15.93;9.75;;;-4.10;88.90;;;;;;4992627;28;20381;-81
2022/01/03 11:06:23;;;;;;;20.10;10.57;;;-4.30;88.20;;;;;;4991769;28;20066;-80
2022/01/03 11:11:41;;;;;;;18.85;10.88;;;-4.30;89.50;;;;;;4999887;28;20049;-80
2022/01/03 11:14:28;;;;;;;15.38;10.52;;;-4.40;88.30;;;;;;4998622;28;20034;-80
2022/01/03 11:16:54;;;;;;;20.10;10.68;;;-4.60;88.50;;;;;;4996760;28;20167;-83
2022/01/03 11:19:40;;;;;;;16.70;9.98;;;-4.70;89.50;;;;;;4996947;28;20034;-80
2022/01/03 11:22:06;;;;;;;14.75;9.18;;;-4.80;89.70;;;;;;5011397;28;20100;-80
2022/01/03 11:24:32;;;;;;;23.55;10.75;;;-4.90;90.00;;;;;;5011366;28;20023;-79
2022/01/03 11:26:58;;;;;;;15.18;9.93;;;-5.00;90.20;;;;;;4996159;28;20030;-81
2022/01/03 11:29:28;;;;;;;17.10;10.57;;;-4.90;90.40;;;;;;5011605;28;20093;-82
2022/01/03 11:31:54;;;;;;;15.88;9.63;;;-4.90;90.50;;;;;;4994767;28;20050;-81
2022/01/03 11:34:24;;;;;;;20.65;10.90;;;-4.90;90.50;;;;;;4995976;28;20027;-83
2022/01/03 11:36:50;;;;;;;20.42;9.85;;;-4.90;90.50;;;;;;4996339;28;20026;-81
2022/01/03 11:39:20;;;;;;;16.17;11.20;;;-4.90;90.50;;;;;;4995931;28;20038;-81
2022/01/03 11:41:46;;;;;;;19.83;9.93;;;-4.90;90.50;;;;;;4995632;28;20117;-80
2022/01/03 11:44:16;;;;;;;20.27;10.23;;;-5.00;90.40;;;;;;4996514;28;20432;-80
2022/01/03 11:46:46;;;;;;;23.83;10.20;;;-5.00;90.60;;;;;;4996597;28;20025;-80
2022/01/03 11:49:16;;;;;;;21.15;9.82;;;-5.00;90.60;;;;;;4997002;28;20487;-80
2022/01/03 11:51:51;;;;;;;13.85;9.88;;;-5.00;90.60;;;;;;4996552;28;20022;-79
2022/01/03 11:54:18;;;;;;;15.07;9.93;;;-5.00;90.60;;;;;;4994707;28;20031;-80
2022/01/03 11:56:50;;;;;;;22.15;9.75;;;-4.90;90.80;;;;;;4995965;28;20022;-79
2022/01/03 12:04:42;;;;;;;17.52;10.68;;;-4.80;90.90;;;;;;4996244;28;20065;-80
2022/01/03 12:07:12;;;;;;;18.33;10.05;;;-4.80;90.80;;;;;;4996170;28;20041;-78
2022/01/03 12:09:40;;;;;;;19.73;11.23;;;-4.90;90.70;;;;;;4996126;28;20084;-81
2022/01/03 12:12:07;;;;;;;19.67;11.00;;;-4.90;90.80;;;;;;4995841;28;20101;-78
2022/01/03 12:14:43;;;;;;;19.23;9.93;;;-4.90;90.80;;;;;;4995787;28;20440;-78
2022/01/03 12:17:10;;;;;;;20.25;12.13;;;-4.90;90.80;;;;;;4995981;28;20090;-79
2022/01/03 12:19:42;;;;;;;16.90;11.20;;;-4.90;90.70;;;;;;4995318;28;20100;-80
2022/01/03 12:22:18;;;;;;;19.02;11.02;;;-5.00;90.80;;;;;;4995106;28;20038;-79
2022/01/03 12:24:46;;;;;;;19.75;11.05;;;-5.00;90.80;;;;;;4995252;28;20026;-81
2022/01/03 12:29:56;;;;;;;24.05;12.30;;;-5.00;90.80;;;;;;4995383;28;20034;-80
2022/01/03 12:32:25;;;;;;;23.05;12.32;;;-5.00;90.80;;;;;;4995389;28;20031;-80
2022/01/03 12:35:15;;;;;;;21.48;14.10;;;-5.10;90.90;;;;;;5002339;28;20014;-79
2022/01/03 12:37:50;;;;;;;19.77;10.02;;;-5.00;91.00;;;;;;5012416;28;20022;-80
2022/01/03 12:40:50;;;;;;;20.80;14.35;;;-5.00;91.30;;;;;;5009455;28;20129;-80
2022/01/03 12:43:34;;;;;;;23.50;13.63;;;-5.00;91.00;;;;;;5013165;28;20080;-81
2022/01/03 12:46:04;;;;;;;26.50;15.18;;;-5.10;90.80;;;;;;4995881;28;20019;-81
2022/01/03 12:48:33;;;;;;;28.98;12.98;;;-5.10;90.80;;;;;;4995750;28;20416;-80
2022/01/03 12:50:59;;;;;;;22.15;12.02;;;-5.20;90.60;;;;;;4995390;28;20034;-82
2022/01/03 12:53:28;;;;;;;21.95;12.10;;;-5.30;90.60;;;;;;4994984;28;20026;-80
2022/01/03 12:55:54;;;;;;;19.50;12.00;;;-5.40;90.80;;;;;;4994868;28;20112;-79
2022/01/03 12:58:20;;;;;;;18.13;11.90;;;-5.60;90.80;;;;;;4994952;28;20032;-81
2022/01/03 13:00:58;;;;;;;19.50;10.85;;;-5.60;91.00;;;;;;4993772;28;20038;-81
2022/01/03 13:03:29;;;;;;;22.08;11.05;;;-5.70;91.40;;;;;;4994435;28;20033;-80
2022/01/03 13:06:13;;;;;;;18.63;10.77;;;-5.70;91.20;;;;;;4994753;28;20022;-80